sensor_id;sensor_type;location;lat;lon;timestamp;temperature;humidity
22633;DHT22;11483;55.828;37.488;2023-08-07T00:00:50;25.30;99.90
22633;DHT22;11483;55.828;37.488;2023-08-07T00:03:15;25.30;99.90
22633;DHT22;11483;55.828;37.488;2023-08-07T00:05:50;25.20;99.90
22633;DHT22;11483;55.828;37.488;2023-08-07T00:08:20;25.20;99.90
22633;DHT22;11483;55.828;37.488;2023-08-07T00:10:46;25.20;99.90
22633;DHT22;11483;55.828;37.488;2023-08-07T00:13:13;25.20;99.90
22633;DHT22;11483;55.828;37.488;2023-08-07T00:15:39;25.20;99.90
22633;DHT22;11483;55.828;37.488;2023-08-07T00:18:05;25.20;99.90
22633;DHT22;11483;55.828;37.488;2023-08-07T00:20:31;25.10;99.90
22633;DHT22;11483;55.828;37.488;2023-08-07T00:22:57;25.10;99.90
22633;DHT22;11483;55.828;37.488;2023-08-07T00:25:23;25.10;99.90
22633;DHT22;11483;55.828;37.488;2023-08-07T00:27:49;25.10;99.90
22633;DHT22;11483;55.828;37.488;2023-08-07T00:30:15;25.10;99.90
22633;DHT22;11483;55.828;37.488;2023-08-07T00:32:41;25.10;99.90
22633;DHT22;11483;55.828;37.488;2023-08-07T00:35:07;25.10;99.90
22633;DHT22;11483;55.828;37.488;2023-08-07T00:37:34;25.00;99.90
22633;DHT22;11483;55.828;37.488;2023-08-07T00:40:00;25.00;99.90
22633;DHT22;11483;55.828;37.488;2023-08-07T00:42:25;25.00;99.90
22633;DHT22;11483;55.828;37.488;2023-08-07T00:44:51;25.00;99.90
22633;DHT22;11483;55.828;37.488;2023-08-07T00:47:17;24.90;99.90
22633;DHT22;11483;55.828;37.488;2023-08-07T00:49:43;24.90;99.90
22633;DHT22;11483;55.828;37.488;2023-08-07T00:52:10;24.90;99.90
22633;DHT22;11483;55.828;37.488;2023-08-07T00:54:37;24.90;99.90
22633;DHT22;11483;55.828;37.488;2023-08-07T00:57:13;24.90;99.90
22633;DHT22;11483;55.828;37.488;2023-08-07T00:59:42;24.90;99.90
22633;DHT22;11483;55.828;37.488;2023-08-07T01:02:10;24.80;99.90
22633;DHT22;11483;55.828;37.488;2023-08-07T01:04:38;24.80;99.90
22633;DHT22;11483;55.828;37.488;2023-08-07T01:07:04;24.80;99.90
22633;DHT22;11483;55.828;37.488;2023-08-07T01:09:30;24.70;99.90
22633;DHT22;11483;55.828;37.488;2023-08-07T01:12:07;24.70;99.90
22633;DHT22;11483;55.828;37.488;2023-08-07T01:17:39;24.70;99.90
22633;DHT22;11483;55.828;37.488;2023-08-07T01:20:08;24.60;99.90
22633;DHT22;11483;55.828;37.488;2023-08-07T01:22:34;24.60;99.90
22633;DHT22;11483;55.828;37.488;2023-08-07T01:24:59;24.60;99.90
22633;DHT22;11483;55.828;37.488;2023-08-07T01:30:29;24.60;99.90
22633;DHT22;11483;55.828;37.488;2023-08-07T01:35:29;24.60;99.90
22633;DHT22;11483;55.828;37.488;2023-08-07T01:37:56;24.50;99.90
22633;DHT22;11483;55.828;37.488;2023-08-07T01:40:23;24.50;99.90
22633;DHT22;11483;55.828;37.488;2023-08-07T01:42:49;24.50;99.90
22633;DHT22;11483;55.828;37.488;2023-08-07T01:45:26;24.50;99.90
22633;DHT22;11483;55.828;37.488;2023-08-07T01:47:52;24.50;99.90
22633;DHT22;11483;55.828;37.488;2023-08-07T01:50:22;24.50;99.90
22633;DHT22;11483;55.828;37.488;2023-08-07T01:52:49;24.50;99.90
22633;DHT22;11483;55.828;37.488;2023-08-07T01:55:16;24.50;99.90
22633;DHT22;11483;55.828;37.488;2023-08-07T01:57:42;24.40;99.90
22633;DHT22;11483;55.828;37.488;2023-08-07T02:00:08;24.40;99.90
22633;DHT22;11483;55.828;37.488;2023-08-07T02:02:35;24.40;99.90
22633;DHT22;11483;55.828;37.488;2023-08-07T02:05:01;24.40;99.90
22633;DHT22;11483;55.828;37.488;2023-08-07T02:07:27;24.40;99.90
22633;DHT22;11483;55.828;37.488;2023-08-07T02:09:53;24.40;99.90
22633;DHT22;11483;55.828;37.488;2023-08-07T02:12:19;24.40;99.90
22633;DHT22;11483;55.828;37.488;2023-08-07T02:14:45;24.40;99.90
22633;DHT22;11483;55.828;37.488;2023-08-07T02:17:10;24.40;99.90
22633;DHT22;11483;55.828;37.488;2023-08-07T02:19:36;24.40;99.90
22633;DHT22;11483;55.828;37.488;2023-08-07T02:22:02;24.40;99.90
22633;DHT22;11483;55.828;37.488;2023-08-07T02:24:28;24.40;99.90
22633;DHT22;11483;55.828;37.488;2023-08-07T02:26:54;24.40;99.90
22633;DHT22;11483;55.828;37.488;2023-08-07T02:29:20;24.40;99.90
22633;DHT22;11483;55.828;37.488;2023-08-07T02:31:46;24.30;99.90
22633;DHT22;11483;55.828;37.488;2023-08-07T02:34:12;24.30;99.90
22633;DHT22;11483;55.828;37.488;2023-08-07T02:36:37;24.40;99.90
22633;DHT22;11483;55.828;37.488;2023-08-07T02:39:04;24.40;99.90
22633;DHT22;11483;55.828;37.488;2023-08-07T02:41:29;24.40;99.90
22633;DHT22;11483;55.828;37.488;2023-08-07T02:43:57;24.40;99.90
22633;DHT22;11483;55.828;37.488;2023-08-07T02:46:23;24.30;99.90
22633;DHT22;11483;55.828;37.488;2023-08-07T02:48:49;24.40;99.90
22633;DHT22;11483;55.828;37.488;2023-08-07T02:51:14;24.30;99.90
22633;DHT22;11483;55.828;37.488;2023-08-07T02:53:40;24.40;99.90
22633;DHT22;11483;55.828;37.488;2023-08-07T02:56:06;24.40;99.90
22633;DHT22;11483;55.828;37.488;2023-08-07T02:58:32;24.40;99.90
22633;DHT22;11483;55.828;37.488;2023-08-07T03:01:03;24.30;99.90
22633;DHT22;11483;55.828;37.488;2023-08-07T03:03:30;24.30;99.90
22633;DHT22;11483;55.828;37.488;2023-08-07T03:05:56;24.30;99.90
22633;DHT22;11483;55.828;37.488;2023-08-07T03:08:22;24.30;99.90
22633;DHT22;11483;55.828;37.488;2023-08-07T03:10:55;24.30;99.90
22633;DHT22;11483;55.828;37.488;2023-08-07T03:13:22;24.40;99.90
22633;DHT22;11483;55.828;37.488;2023-08-07T03:15:48;24.40;99.90
22633;DHT22;11483;55.828;37.488;2023-08-07T03:18:18;24.40;99.90
22633;DHT22;11483;55.828;37.488;2023-08-07T03:20:44;24.40;99.90
22633;DHT22;11483;55.828;37.488;2023-08-07T03:23:10;24.40;99.90
22633;DHT22;11483;55.828;37.488;2023-08-07T03:25:37;24.50;99.90
22633;DHT22;11483;55.828;37.488;2023-08-07T03:28:03;24.50;99.90
22633;DHT22;11483;55.828;37.488;2023-08-07T03:30:29;24.50;99.90
22633;DHT22;11483;55.828;37.488;2023-08-07T03:32:55;24.50;99.90
22633;DHT22;11483;55.828;37.488;2023-08-07T03:35:20;24.60;99.90
22633;DHT22;11483;55.828;37.488;2023-08-07T03:37:46;24.60;99.90
22633;DHT22;11483;55.828;37.488;2023-08-07T03:40:12;24.60;99.90
22633;DHT22;11483;55.828;37.488;2023-08-07T03:42:38;24.60;99.90
22633;DHT22;11483;55.828;37.488;2023-08-07T03:45:04;24.70;99.90
22633;DHT22;11483;55.828;37.488;2023-08-07T03:47:30;24.70;99.90
22633;DHT22;11483;55.828;37.488;2023-08-07T03:49:56;24.80;99.90
22633;DHT22;11483;55.828;37.488;2023-08-07T03:52:21;24.80;99.90
22633;DHT22;11483;55.828;37.488;2023-08-07T03:54:47;24.80;99.90
22633;DHT22;11483;55.828;37.488;2023-08-07T03:57:13;24.90;99.90
22633;DHT22;11483;55.828;37.488;2023-08-07T03:59:39;24.90;99.90
22633;DHT22;11483;55.828;37.488;2023-08-07T04:02:05;24.90;99.90
22633;DHT22;11483;55.828;37.488;2023-08-07T04:04:31;25.00;99.90
22633;DHT22;11483;55.828;37.488;2023-08-07T04:06:57;25.00;99.90
22633;DHT22;11483;55.828;37.488;2023-08-07T04:09:23;25.00;99.90
22633;DHT22;11483;55.828;37.488;2023-08-07T04:11:49;25.10;99.90
22633;DHT22;11483;55.828;37.488;2023-08-07T04:14:14;25.10;99.90
22633;DHT22;11483;55.828;37.488;2023-08-07T04:16:40;25.10;99.90
22633;DHT22;11483;55.828;37.488;2023-08-07T04:19:06;25.20;99.90
22633;DHT22;11483;55.828;37.488;2023-08-07T04:21:33;25.20;99.90
22633;DHT22;11483;55.828;37.488;2023-08-07T04:23:59;25.30;99.90
22633;DHT22;11483;55.828;37.488;2023-08-07T04:26:26;25.30;99.90
22633;DHT22;11483;55.828;37.488;2023-08-07T04:28:52;25.30;99.90
22633;DHT22;11483;55.828;37.488;2023-08-07T04:31:18;25.30;99.90
22633;DHT22;11483;55.828;37.488;2023-08-07T04:33:44;25.40;99.90
22633;DHT22;11483;55.828;37.488;2023-08-07T04:36:09;25.50;99.90
22633;DHT22;11483;55.828;37.488;2023-08-07T04:38:35;25.50;99.90
22633;DHT22;11483;55.828;37.488;2023-08-07T04:41:01;25.50;99.90
22633;DHT22;11483;55.828;37.488;2023-08-07T04:43:28;25.50;99.90
22633;DHT22;11483;55.828;37.488;2023-08-07T04:45:54;25.50;99.90
22633;DHT22;11483;55.828;37.488;2023-08-07T04:48:20;25.50;99.90
22633;DHT22;11483;55.828;37.488;2023-08-07T04:50:47;25.60;99.90
22633;DHT22;11483;55.828;37.488;2023-08-07T04:53:13;25.60;99.90
22633;DHT22;11483;55.828;37.488;2023-08-07T04:55:40;25.70;99.90
22633;DHT22;11483;55.828;37.488;2023-08-07T04:58:05;25.70;99.90
22633;DHT22;11483;55.828;37.488;2023-08-07T05:00:31;25.80;99.90
22633;DHT22;11483;55.828;37.488;2023-08-07T05:02:57;25.80;99.90
22633;DHT22;11483;55.828;37.488;2023-08-07T05:05:23;25.70;99.90
22633;DHT22;11483;55.828;37.488;2023-08-07T05:07:49;25.80;99.90
22633;DHT22;11483;55.828;37.488;2023-08-07T05:10:15;25.80;99.90
22633;DHT22;11483;55.828;37.488;2023-08-07T05:12:41;25.90;99.90
22633;DHT22;11483;55.828;37.488;2023-08-07T05:15:07;25.90;99.90
22633;DHT22;11483;55.828;37.488;2023-08-07T05:17:33;26.00;99.90
22633;DHT22;11483;55.828;37.488;2023-08-07T05:19:58;26.10;99.90
22633;DHT22;11483;55.828;37.488;2023-08-07T05:22:24;26.10;99.90
22633;DHT22;11483;55.828;37.488;2023-08-07T05:24:50;26.10;99.90
22633;DHT22;11483;55.828;37.488;2023-08-07T05:27:16;26.20;99.90
22633;DHT22;11483;55.828;37.488;2023-08-07T05:29:42;26.30;99.90
22633;DHT22;11483;55.828;37.488;2023-08-07T05:32:14;26.30;99.90
22633;DHT22;11483;55.828;37.488;2023-08-07T05:34:40;26.30;99.90
22633;DHT22;11483;55.828;37.488;2023-08-07T05:37:07;26.30;99.90
22633;DHT22;11483;55.828;37.488;2023-08-07T05:39:34;26.30;99.90
22633;DHT22;11483;55.828;37.488;2023-08-07T05:42:00;26.40;99.90
22633;DHT22;11483;55.828;37.488;2023-08-07T05:44:27;26.40;99.90
22633;DHT22;11483;55.828;37.488;2023-08-07T05:46:53;26.50;99.90
22633;DHT22;11483;55.828;37.488;2023-08-07T05:49:21;26.50;99.90
22633;DHT22;11483;55.828;37.488;2023-08-07T05:51:47;26.60;99.90
22633;DHT22;11483;55.828;37.488;2023-08-07T05:54:12;26.60;99.90
22633;DHT22;11483;55.828;37.488;2023-08-07T05:56:40;26.60;99.90
22633;DHT22;11483;55.828;37.488;2023-08-07T05:59:06;26.70;99.90
22633;DHT22;11483;55.828;37.488;2023-08-07T06:01:32;26.70;99.90
22633;DHT22;11483;55.828;37.488;2023-08-07T06:03:58;26.70;99.90
22633;DHT22;11483;55.828;37.488;2023-08-07T06:06:27;26.70;99.90
22633;DHT22;11483;55.828;37.488;2023-08-07T06:08:55;26.90;99.90
22633;DHT22;11483;55.828;37.488;2023-08-07T06:11:21;27.00;99.90
22633;DHT22;11483;55.828;37.488;2023-08-07T06:13:48;27.10;99.90
22633;DHT22;11483;55.828;37.488;2023-08-07T06:16:14;27.10;99.90
22633;DHT22;11483;55.828;37.488;2023-08-07T06:18:40;27.10;99.90
22633;DHT22;11483;55.828;37.488;2023-08-07T06:21:06;27.10;99.90
22633;DHT22;11483;55.828;37.488;2023-08-07T06:23:35;27.20;99.90
22633;DHT22;11483;55.828;37.488;2023-08-07T06:26:01;27.10;99.90
22633;DHT22;11483;55.828;37.488;2023-08-07T06:28:31;27.10;99.90
22633;DHT22;11483;55.828;37.488;2023-08-07T06:31:06;27.10;99.90
22633;DHT22;11483;55.828;37.488;2023-08-07T06:33:32;27.20;99.90
22633;DHT22;11483;55.828;37.488;2023-08-07T06:35:59;27.20;99.90
22633;DHT22;11483;55.828;37.488;2023-08-07T06:38:25;27.20;99.90
22633;DHT22;11483;55.828;37.488;2023-08-07T06:40:51;27.30;99.90
22633;DHT22;11483;55.828;37.488;2023-08-07T06:43:17;27.30;99.90
22633;DHT22;11483;55.828;37.488;2023-08-07T06:45:43;27.40;99.90
22633;DHT22;11483;55.828;37.488;2023-08-07T06:48:09;27.50;99.90
22633;DHT22;11483;55.828;37.488;2023-08-07T06:50:35;27.60;99.90
22633;DHT22;11483;55.828;37.488;2023-08-07T06:53:01;27.70;99.90
22633;DHT22;11483;55.828;37.488;2023-08-07T06:55:26;27.80;99.90
22633;DHT22;11483;55.828;37.488;2023-08-07T06:57:52;27.90;99.90
22633;DHT22;11483;55.828;37.488;2023-08-07T07:00:18;27.80;99.90
22633;DHT22;11483;55.828;37.488;2023-08-07T07:02:44;27.90;99.90
22633;DHT22;11483;55.828;37.488;2023-08-07T07:05:10;28.00;99.90
22633;DHT22;11483;55.828;37.488;2023-08-07T07:07:36;28.00;99.90
22633;DHT22;11483;55.828;37.488;2023-08-07T07:10:02;28.00;99.90
22633;DHT22;11483;55.828;37.488;2023-08-07T07:12:29;28.10;99.90
22633;DHT22;11483;55.828;37.488;2023-08-07T07:14:54;28.10;99.90
22633;DHT22;11483;55.828;37.488;2023-08-07T07:17:20;28.10;99.90
22633;DHT22;11483;55.828;37.488;2023-08-07T07:19:46;28.20;99.90
22633;DHT22;11483;55.828;37.488;2023-08-07T07:22:12;28.20;99.90
22633;DHT22;11483;55.828;37.488;2023-08-07T07:24:38;28.20;99.90
22633;DHT22;11483;55.828;37.488;2023-08-07T07:27:04;28.30;99.90
22633;DHT22;11483;55.828;37.488;2023-08-07T07:29:30;28.40;99.90
22633;DHT22;11483;55.828;37.488;2023-08-07T07:31:56;28.40;99.90
22633;DHT22;11483;55.828;37.488;2023-08-07T07:34:22;28.40;99.90
22633;DHT22;11483;55.828;37.488;2023-08-07T07:36:48;28.40;99.90
22633;DHT22;11483;55.828;37.488;2023-08-07T07:39:14;28.40;99.90
22633;DHT22;11483;55.828;37.488;2023-08-07T07:41:40;28.40;99.90
22633;DHT22;11483;55.828;37.488;2023-08-07T07:44:06;28.40;99.90
22633;DHT22;11483;55.828;37.488;2023-08-07T07:46:31;28.40;99.90
22633;DHT22;11483;55.828;37.488;2023-08-07T07:48:58;28.50;99.90
22633;DHT22;11483;55.828;37.488;2023-08-07T07:51:24;28.50;99.90
22633;DHT22;11483;55.828;37.488;2023-08-07T07:53:51;28.40;99.90
22633;DHT22;11483;55.828;37.488;2023-08-07T07:56:16;28.50;99.90
22633;DHT22;11483;55.828;37.488;2023-08-07T07:58:42;28.50;99.90
22633;DHT22;11483;55.828;37.488;2023-08-07T08:01:09;28.40;99.90
22633;DHT22;11483;55.828;37.488;2023-08-07T08:03:35;28.40;99.90
22633;DHT22;11483;55.828;37.488;2023-08-07T08:06:01;28.50;99.90
22633;DHT22;11483;55.828;37.488;2023-08-07T08:08:27;28.60;99.90
22633;DHT22;11483;55.828;37.488;2023-08-07T08:10:54;28.70;99.90
22633;DHT22;11483;55.828;37.488;2023-08-07T08:13:19;28.80;99.90
22633;DHT22;11483;55.828;37.488;2023-08-07T08:15:45;28.90;99.90
22633;DHT22;11483;55.828;37.488;2023-08-07T08:18:12;28.90;99.90
22633;DHT22;11483;55.828;37.488;2023-08-07T08:20:38;29.00;99.90
22633;DHT22;11483;55.828;37.488;2023-08-07T08:23:04;29.00;99.90
22633;DHT22;11483;55.828;37.488;2023-08-07T08:25:31;29.00;99.90
22633;DHT22;11483;55.828;37.488;2023-08-07T08:27:57;28.90;99.90
22633;DHT22;11483;55.828;37.488;2023-08-07T08:30:23;29.10;99.90
22633;DHT22;11483;55.828;37.488;2023-08-07T08:32:49;29.20;99.90
22633;DHT22;11483;55.828;37.488;2023-08-07T08:35:15;29.20;99.90
22633;DHT22;11483;55.828;37.488;2023-08-07T08:37:40;29.30;99.90
22633;DHT22;11483;55.828;37.488;2023-08-07T08:40:08;29.60;99.90
22633;DHT22;11483;55.828;37.488;2023-08-07T08:42:39;30.00;99.90
22633;DHT22;11483;55.828;37.488;2023-08-07T08:45:09;30.70;99.90
22633;DHT22;11483;55.828;37.488;2023-08-07T08:47:37;32.10;99.90
22633;DHT22;11483;55.828;37.488;2023-08-07T08:50:13;33.90;99.50
22633;DHT22;11483;55.828;37.488;2023-08-07T08:52:44;35.50;95.30
22633;DHT22;11483;55.828;37.488;2023-08-07T08:55:12;36.60;92.10
22633;DHT22;11483;55.828;37.488;2023-08-07T08:57:39;37.40;87.60
22633;DHT22;11483;55.828;37.488;2023-08-07T09:00:09;38.30;83.60
22633;DHT22;11483;55.828;37.488;2023-08-07T09:02:47;39.30;78.10
22633;DHT22;11483;55.828;37.488;2023-08-07T09:05:18;39.90;74.30
22633;DHT22;11483;55.828;37.488;2023-08-07T09:07:48;40.40;71.80
22633;DHT22;11483;55.828;37.488;2023-08-07T09:10:15;40.80;69.30
22633;DHT22;11483;55.828;37.488;2023-08-07T09:13:01;41.00;67.30
22633;DHT22;11483;55.828;37.488;2023-08-07T09:15:30;41.00;65.70
22633;DHT22;11483;55.828;37.488;2023-08-07T09:17:58;40.90;64.60
22633;DHT22;11483;55.828;37.488;2023-08-07T09:20:27;40.70;63.30
22633;DHT22;11483;55.828;37.488;2023-08-07T09:22:54;40.50;63.10
22633;DHT22;11483;55.828;37.488;2023-08-07T09:25:30;40.70;63.20
22633;DHT22;11483;55.828;37.488;2023-08-07T09:27:57;41.10;62.60
22633;DHT22;11483;55.828;37.488;2023-08-07T09:30:27;41.20;62.10
22633;DHT22;11483;55.828;37.488;2023-08-07T09:32:56;40.80;61.20
22633;DHT22;11483;55.828;37.488;2023-08-07T09:35:22;40.80;60.20
22633;DHT22;11483;55.828;37.488;2023-08-07T09:37:49;41.10;59.50
22633;DHT22;11483;55.828;37.488;2023-08-07T09:40:15;41.00;59.40
22633;DHT22;11483;55.828;37.488;2023-08-07T09:42:41;41.10;59.00
22633;DHT22;11483;55.828;37.488;2023-08-07T09:45:20;40.80;59.80
22633;DHT22;11483;55.828;37.488;2023-08-07T09:47:46;40.70;57.90
22633;DHT22;11483;55.828;37.488;2023-08-07T09:50:16;40.70;58.30
22633;DHT22;11483;55.828;37.488;2023-08-07T09:52:47;40.70;57.90
22633;DHT22;11483;55.828;37.488;2023-08-07T09:55:13;40.90;57.80
22633;DHT22;11483;55.828;37.488;2023-08-07T09:57:45;41.30;57.60
22633;DHT22;11483;55.828;37.488;2023-08-07T10:00:18;41.50;57.30
22633;DHT22;11483;55.828;37.488;2023-08-07T10:02:50;41.40;56.40
22633;DHT22;11483;55.828;37.488;2023-08-07T10:05:17;40.90;59.10
22633;DHT22;11483;55.828;37.488;2023-08-07T10:07:44;40.90;56.40
22633;DHT22;11483;55.828;37.488;2023-08-07T10:10:10;41.20;56.70
22633;DHT22;11483;55.828;37.488;2023-08-07T10:12:37;41.50;57.40
22633;DHT22;11483;55.828;37.488;2023-08-07T10:15:03;41.50;55.60
22633;DHT22;11483;55.828;37.488;2023-08-07T10:17:30;41.10;55.70
22633;DHT22;11483;55.828;37.488;2023-08-07T10:19:57;40.50;56.00
22633;DHT22;11483;55.828;37.488;2023-08-07T10:22:25;40.10;56.60
22633;DHT22;11483;55.828;37.488;2023-08-07T10:24:53;40.30;59.60
22633;DHT22;11483;55.828;37.488;2023-08-07T10:27:22;40.60;57.10
22633;DHT22;11483;55.828;37.488;2023-08-07T10:29:50;41.00;56.00
22633;DHT22;11483;55.828;37.488;2023-08-07T10:32:19;41.30;55.40
22633;DHT22;11483;55.828;37.488;2023-08-07T10:34:52;41.50;55.20
22633;DHT22;11483;55.828;37.488;2023-08-07T10:37:42;41.30;54.00
22633;DHT22;11483;55.828;37.488;2023-08-07T10:40:11;41.10;54.60
22633;DHT22;11483;55.828;37.488;2023-08-07T10:42:56;40.80;55.00
22633;DHT22;11483;55.828;37.488;2023-08-07T10:45:24;40.80;55.40
22633;DHT22;11483;55.828;37.488;2023-08-07T10:48:12;41.20;55.50
22633;DHT22;11483;55.828;37.488;2023-08-07T10:50:57;41.40;55.10
22633;DHT22;11483;55.828;37.488;2023-08-07T10:53:52;41.90;54.80
22633;DHT22;11483;55.828;37.488;2023-08-07T10:56:33;41.90;53.80
22633;DHT22;11483;55.828;37.488;2023-08-07T10:59:11;42.10;54.00
22633;DHT22;11483;55.828;37.488;2023-08-07T11:01:41;42.80;53.20
22633;DHT22;11483;55.828;37.488;2023-08-07T11:04:12;42.90;53.90
22633;DHT22;11483;55.828;37.488;2023-08-07T11:06:39;42.90;52.90
22633;DHT22;11483;55.828;37.488;2023-08-07T11:09:07;42.60;53.00
22633;DHT22;11483;55.828;37.488;2023-08-07T11:11:47;42.00;52.90
22633;DHT22;11483;55.828;37.488;2023-08-07T11:14:15;42.00;53.20
22633;DHT22;11483;55.828;37.488;2023-08-07T11:16:42;41.90;52.30
22633;DHT22;11483;55.828;37.488;2023-08-07T11:19:09;42.00;53.00
22633;DHT22;11483;55.828;37.488;2023-08-07T11:21:35;42.30;53.30
22633;DHT22;11483;55.828;37.488;2023-08-07T11:24:02;42.70;52.90
22633;DHT22;11483;55.828;37.488;2023-08-07T11:26:28;42.90;52.70
22633;DHT22;11483;55.828;37.488;2023-08-07T11:28:55;43.20;52.00
22633;DHT22;11483;55.828;37.488;2023-08-07T11:31:22;43.10;52.10
22633;DHT22;11483;55.828;37.488;2023-08-07T11:33:50;43.00;52.80
22633;DHT22;11483;55.828;37.488;2023-08-07T11:36:16;42.70;52.00
22633;DHT22;11483;55.828;37.488;2023-08-07T11:38:44;42.60;53.30
22633;DHT22;11483;55.828;37.488;2023-08-07T11:41:15;42.40;52.50
22633;DHT22;11483;55.828;37.488;2023-08-07T11:43:42;42.30;52.30
22633;DHT22;11483;55.828;37.488;2023-08-07T11:46:10;42.10;51.60
22633;DHT22;11483;55.828;37.488;2023-08-07T11:48:37;41.70;52.20
22633;DHT22;11483;55.828;37.488;2023-08-07T11:51:05;41.60;52.60
22633;DHT22;11483;55.828;37.488;2023-08-07T11:53:33;41.70;52.60
22633;DHT22;11483;55.828;37.488;2023-08-07T11:56:02;42.00;52.50
22633;DHT22;11483;55.828;37.488;2023-08-07T11:58:40;42.30;52.30
22633;DHT22;11483;55.828;37.488;2023-08-07T12:01:10;42.90;53.00
22633;DHT22;11483;55.828;37.488;2023-08-07T12:03:38;43.10;51.70
22633;DHT22;11483;55.828;37.488;2023-08-07T12:06:06;42.80;51.30
22633;DHT22;11483;55.828;37.488;2023-08-07T12:08:36;42.20;52.40
22633;DHT22;11483;55.828;37.488;2023-08-07T12:11:04;42.20;52.50
22633;DHT22;11483;55.828;37.488;2023-08-07T12:13:32;42.20;53.30
22633;DHT22;11483;55.828;37.488;2023-08-07T12:16:01;42.00;52.50
22633;DHT22;11483;55.828;37.488;2023-08-07T12:18:30;41.90;52.70
22633;DHT22;11483;55.828;37.488;2023-08-07T12:21:01;41.80;52.70
22633;DHT22;11483;55.828;37.488;2023-08-07T12:23:27;41.60;53.00
22633;DHT22;11483;55.828;37.488;2023-08-07T12:25:53;41.30;52.80
22633;DHT22;11483;55.828;37.488;2023-08-07T12:28:19;41.20;53.20
22633;DHT22;11483;55.828;37.488;2023-08-07T12:30:46;40.80;54.30
22633;DHT22;11483;55.828;37.488;2023-08-07T12:33:12;40.80;54.90
22633;DHT22;11483;55.828;37.488;2023-08-07T12:35:39;40.90;54.10
22633;DHT22;11483;55.828;37.488;2023-08-07T12:38:05;41.10;53.70
22633;DHT22;11483;55.828;37.488;2023-08-07T12:40:31;41.20;53.80
22633;DHT22;11483;55.828;37.488;2023-08-07T12:43:00;41.50;53.70
22633;DHT22;11483;55.828;37.488;2023-08-07T12:45:26;41.70;53.10
22633;DHT22;11483;55.828;37.488;2023-08-07T12:47:52;41.40;53.10
22633;DHT22;11483;55.828;37.488;2023-08-07T12:50:18;40.80;54.30
22633;DHT22;11483;55.828;37.488;2023-08-07T12:52:44;40.70;54.50
22633;DHT22;11483;55.828;37.488;2023-08-07T12:55:11;40.70;54.40
22633;DHT22;11483;55.828;37.488;2023-08-07T12:57:40;40.50;54.50
22633;DHT22;11483;55.828;37.488;2023-08-07T13:00:06;40.60;54.80
22633;DHT22;11483;55.828;37.488;2023-08-07T13:02:34;40.50;54.50
22633;DHT22;11483;55.828;37.488;2023-08-07T13:04:59;40.30;54.70
22633;DHT22;11483;55.828;37.488;2023-08-07T13:07:25;40.20;54.70
22633;DHT22;11483;55.828;37.488;2023-08-07T13:09:51;40.10;54.60
22633;DHT22;11483;55.828;37.488;2023-08-07T13:12:17;40.00;55.80
22633;DHT22;11483;55.828;37.488;2023-08-07T13:14:43;40.10;54.70
22633;DHT22;11483;55.828;37.488;2023-08-07T13:17:09;39.90;55.00
22633;DHT22;11483;55.828;37.488;2023-08-07T13:19:34;39.70;55.20
22633;DHT22;11483;55.828;37.488;2023-08-07T13:22:00;39.50;55.00
22633;DHT22;11483;55.828;37.488;2023-08-07T13:24:26;39.40;55.50
22633;DHT22;11483;55.828;37.488;2023-08-07T13:26:52;39.50;55.30
22633;DHT22;11483;55.828;37.488;2023-08-07T13:29:18;39.40;55.60
22633;DHT22;11483;55.828;37.488;2023-08-07T13:31:44;39.60;55.60
22633;DHT22;11483;55.828;37.488;2023-08-07T13:34:12;39.50;55.50
22633;DHT22;11483;55.828;37.488;2023-08-07T13:36:38;39.60;55.60
22633;DHT22;11483;55.828;37.488;2023-08-07T13:39:05;39.30;55.40
22633;DHT22;11483;55.828;37.488;2023-08-07T13:41:32;39.50;55.60
22633;DHT22;11483;55.828;37.488;2023-08-07T13:43:58;39.60;55.40
22633;DHT22;11483;55.828;37.488;2023-08-07T13:46:25;39.70;55.60
22633;DHT22;11483;55.828;37.488;2023-08-07T13:48:51;39.70;55.60
22633;DHT22;11483;55.828;37.488;2023-08-07T13:51:17;39.90;55.60
22633;DHT22;11483;55.828;37.488;2023-08-07T13:53:43;40.10;55.70
22633;DHT22;11483;55.828;37.488;2023-08-07T13:56:10;40.30;55.40
22633;DHT22;11483;55.828;37.488;2023-08-07T13:58:43;40.40;54.70
22633;DHT22;11483;55.828;37.488;2023-08-07T14:01:09;40.20;55.10
22633;DHT22;11483;55.828;37.488;2023-08-07T14:03:35;40.20;54.90
22633;DHT22;11483;55.828;37.488;2023-08-07T14:06:01;40.30;54.60
22633;DHT22;11483;55.828;37.488;2023-08-07T14:08:27;40.10;55.30
22633;DHT22;11483;55.828;37.488;2023-08-07T14:10:53;39.30;55.30
22633;DHT22;11483;55.828;37.488;2023-08-07T14:13:20;39.30;55.40
22633;DHT22;11483;55.828;37.488;2023-08-07T14:15:46;39.10;56.10
22633;DHT22;11483;55.828;37.488;2023-08-07T14:18:12;39.00;55.80
22633;DHT22;11483;55.828;37.488;2023-08-07T14:20:40;38.80;56.10
22633;DHT22;11483;55.828;37.488;2023-08-07T14:23:06;38.90;56.00
22633;DHT22;11483;55.828;37.488;2023-08-07T14:25:32;39.00;56.20
22633;DHT22;11483;55.828;37.488;2023-08-07T14:27:58;39.00;56.00
22633;DHT22;11483;55.828;37.488;2023-08-07T14:30:24;39.10;55.70
22633;DHT22;11483;55.828;37.488;2023-08-07T14:32:50;39.00;56.20
22633;DHT22;11483;55.828;37.488;2023-08-07T14:35:16;39.00;56.10
22633;DHT22;11483;55.828;37.488;2023-08-07T14:37:42;39.10;56.30
22633;DHT22;11483;55.828;37.488;2023-08-07T14:40:08;39.00;56.50
22633;DHT22;11483;55.828;37.488;2023-08-07T14:42:34;38.90;56.50
22633;DHT22;11483;55.828;37.488;2023-08-07T14:45:00;38.70;56.70
22633;DHT22;11483;55.828;37.488;2023-08-07T14:47:26;38.40;57.00
22633;DHT22;11483;55.828;37.488;2023-08-07T14:49:52;38.40;57.00
22633;DHT22;11483;55.828;37.488;2023-08-07T14:52:18;38.30;57.20
22633;DHT22;11483;55.828;37.488;2023-08-07T14:54:44;38.10;57.90
22633;DHT22;11483;55.828;37.488;2023-08-07T14:57:10;38.10;57.70
22633;DHT22;11483;55.828;37.488;2023-08-07T14:59:36;38.40;57.80
22633;DHT22;11483;55.828;37.488;2023-08-07T15:02:01;38.30;56.90
22633;DHT22;11483;55.828;37.488;2023-08-07T15:04:27;38.20;57.30
22633;DHT22;11483;55.828;37.488;2023-08-07T15:06:54;38.20;57.40
22633;DHT22;11483;55.828;37.488;2023-08-07T15:09:20;38.30;57.40
22633;DHT22;11483;55.828;37.488;2023-08-07T15:11:46;38.10;57.40
22633;DHT22;11483;55.828;37.488;2023-08-07T15:14:12;38.10;57.70
22633;DHT22;11483;55.828;37.488;2023-08-07T15:16:38;37.70;58.10
22633;DHT22;11483;55.828;37.488;2023-08-07T15:19:04;37.60;58.40
22633;DHT22;11483;55.828;37.488;2023-08-07T15:21:31;37.60;58.60
22633;DHT22;11483;55.828;37.488;2023-08-07T15:23:57;37.70;58.90